Terminal Aerodrome Forecast
Issued by NWS Twin Cities, MN

Home | Current Version | Previous Version | Text Only | Print | Product List | Glossary On
Versions: 1 2 3 4 5 6 7 8 9 10 11 12 13 14 15 16 17 18 19 20 21 22 23 24 25 26 27
000
FTUS43 KMPX 020040 AAA
TAFMSP
TAF AMD
KMSP 020040Z 0201/0306 19017G27KT P6SM VCTS BKN060CB OVC120
      TEMPO 0201/0203 VRB30G45KT 3SM TSRA OVC035CB
     FM020500 25010KT P6SM VCSH BKN060 OVC120
     FM020800 28010KT P6SM SCT060 BKN120
     FM021000 28007KT P6SM SKC
     FM021500 27017G26KT P6SM SKC
     FM030100 30013KT P6SM BKN250=

USA.gov is the U.S. government's official web portal to all federal, state and local government web resources and services.